Time;durP1;ratioP1;P1;durP2;ratioP2;P2;SDS_P1;SDS_P2;PMS_P1;PMS_P2;Temp;Humidity;BMP_temperature;BMP_pressure;BME280_temperature;BME280_humidity;BME280_pressure;Samples;Min_cycle;Max_cycle;Signal;HPM_P1;HPM_P2
2023/02/10 00:00:55;;;;;;;41.97;20.97;;;;;;;-3.67;100.00;100055.75;4994525;28;20221;-82
2023/02/10 00:03:22;;;;;;;39.63;21.27;;;;;;;-3.62;100.00;100049.81;4994918;28;20213;-81
2023/02/10 00:05:49;;;;;;;33.77;19.07;;;;;;;-3.59;100.00;100047.28;4994748;28;20239;-82
2023/02/10 00:08:16;;;;;;;37.37;18.97;;;;;;;-3.64;100.00;100050.63;4994500;28;20245;-81
2023/02/10 00:10:42;;;;;;;36.07;19.50;;;;;;;-3.63;100.00;100042.03;4994359;28;20243;-82
2023/02/10 00:13:09;;;;;;;37.53;20.50;;;;;;;-3.63;100.00;100042.03;4994875;28;20635;-82
2023/02/10 00:15:37;;;;;;;38.63;20.50;;;;;;;-3.68;100.00;100046.28;4994884;28;20216;-81
2023/02/10 00:18:04;;;;;;;40.27;19.83;;;;;;;-3.65;100.00;100049.78;4994626;28;20749;-81
2023/02/10 00:20:30;;;;;;;36.40;20.10;;;;;;;-3.71;100.00;100036.75;5002507;28;20213;-81
2023/02/10 00:22:58;;;;;;;34.43;20.00;;;;;;;-3.75;100.00;100041.81;5007178;28;20220;-80
2023/02/10 00:25:25;;;;;;;36.73;20.47;;;;;;;-3.77;100.00;100048.69;5010502;28;20217;-81
2023/02/10 00:27:51;;;;;;;37.97;19.73;;;;;;;-3.78;100.00;100046.94;5009779;28;20213;-81
2023/02/10 00:30:18;;;;;;;36.57;20.17;;;;;;;-3.90;100.00;100052.78;5010341;28;20215;-82
2023/02/10 00:32:44;;;;;;;37.83;20.90;;;;;;;-3.93;100.00;100054.41;5009610;28;20603;-83
2023/02/10 00:35:11;;;;;;;36.57;20.00;;;;;;;-3.98;100.00;100050.91;4994070;28;20213;-83
2023/02/10 00:37:37;;;;;;;35.60;20.87;;;;;;;-3.96;100.00;100051.78;4994018;28;20214;-76
2023/02/10 00:40:06;;;;;;;41.83;23.03;;;;;;;-3.97;100.00;100050.91;4993781;28;20215;-83
2023/02/10 00:42:32;;;;;;;46.60;22.83;;;;;;;-3.97;100.00;100055.22;4994059;28;20576;-83
2023/02/10 00:44:59;;;;;;;42.63;22.83;;;;;;;-3.96;100.00;100064.69;4993842;28;20214;-83
2023/02/10 00:47:25;;;;;;;42.57;22.67;;;;;;;-3.95;100.00;100061.28;4993643;28;20208;-83
2023/02/10 00:49:52;;;;;;;46.93;24.47;;;;;;;-3.93;100.00;100069.91;4993156;28;20675;-83
2023/02/10 00:52:19;;;;;;;46.83;24.13;;;;;;;-3.97;100.00;100075.88;4993658;28;20323;-83
2023/02/10 00:54:45;;;;;;;43.83;23.43;;;;;;;-3.96;100.00;100067.28;4993706;28;20301;-83
2023/02/10 00:57:13;;;;;;;45.63;25.67;;;;;;;-3.94;100.00;100071.63;4993650;28;20614;-83
2023/02/10 00:59:40;;;;;;;46.67;24.73;;;;;;;-4.04;100.00;100067.13;4993220;28;20240;-83
2023/02/10 01:02:06;;;;;;;47.37;26.17;;;;;;;-4.09;100.00;100061.00;4993776;28;20208;-83
2023/02/10 01:04:33;;;;;;;45.97;24.53;;;;;;;-4.10;100.00;100064.44;4993400;28;20222;-83
2023/02/10 01:07:00;;;;;;;45.57;24.83;;;;;;;-4.11;100.00;100061.81;4993541;28;20219;-83
2023/02/10 01:09:26;;;;;;;48.87;25.33;;;;;;;-4.13;100.00;100073.81;4992915;28;20242;-84
2023/02/10 01:11:53;;;;;;;46.63;25.13;;;;;;;-4.22;100.00;100071.94;4993425;28;20607;-85
2023/02/10 01:14:21;;;;;;;46.80;24.93;;;;;;;-4.24;100.00;100071.03;4993213;28;20221;-85
2023/02/10 01:16:47;;;;;;;48.87;26.40;;;;;;;-4.28;100.00;100076.13;4993049;28;20240;-84
2023/02/10 01:19:14;;;;;;;48.80;25.60;;;;;;;-4.25;100.00;100076.16;4992835;28;20239;-84
2023/02/10 01:21:41;;;;;;;45.57;23.87;;;;;;;-4.26;100.00;100079.59;4992906;28;20204;-84
2023/02/10 01:24:08;;;;;;;45.53;25.63;;;;;;;-4.25;100.00;100077.06;4993106;28;20320;-84
2023/02/10 01:26:34;;;;;;;49.60;27.20;;;;;;;-4.23;100.00;100083.09;4993098;28;20214;-83
2023/02/10 01:29:01;;;;;;;46.60;24.73;;;;;;;-4.25;100.00;100084.81;4992598;28;20241;-85
2023/02/10 01:31:29;;;;;;;49.90;25.50;;;;;;;-4.21;100.00;100084.00;4992799;28;20603;-85
2023/02/10 01:33:56;;;;;;;54.70;26.60;;;;;;;-4.21;100.00;100080.56;4992927;28;20667;-85
2023/02/10 01:36:25;;;;;;;52.03;26.80;;;;;;;-4.22;100.00;100074.53;4992947;28;20219;-84
2023/02/10 01:38:51;;;;;;;54.03;27.20;;;;;;;-4.19;100.00;100073.72;4992605;28;20234;-84
2023/02/10 01:41:19;;;;;;;53.57;26.63;;;;;;;-4.25;100.00;100073.59;4992219;28;20212;-84
2023/02/10 01:44:01;;;;;;;54.23;27.93;;;;;;;-4.28;100.00;100078.72;4992746;28;20213;-84
2023/02/10 01:46:31;;;;;;;47.70;25.63;;;;;;;-4.29;100.00;100076.97;4993025;28;20227;-84
2023/02/10 01:49:01;;;;;;;52.73;27.40;;;;;;;-4.28;100.00;100083.88;4992501;28;20603;-84
2023/02/10 01:51:36;;;;;;;48.93;27.40;;;;;;;-4.26;100.00;100087.34;4992728;28;20256;-84
2023/02/10 01:54:04;;;;;;;46.90;26.30;;;;;;;-4.30;100.00;100082.94;4993158;28;20200;-84
2023/02/10 01:56:30;;;;;;;53.57;27.00;;;;;;;-4.31;100.00;100078.63;4992688;28;20206;-84
2023/02/10 01:58:57;;;;;;;52.23;27.10;;;;;;;-4.28;100.00;100081.28;4991902;28;20244;-84
2023/02/10 02:01:23;;;;;;;50.33;28.33;;;;;;;-4.27;100.00;100086.47;4992452;28;20704;-84
2023/02/10 02:03:53;;;;;;;50.43;26.97;;;;;;;-4.29;100.00;100093.31;4992856;28;20226;-84
2023/02/10 02:06:22;;;;;;;50.90;26.53;;;;;;;-4.34;100.00;100100.09;4992689;28;20212;-84
2023/02/10 02:08:49;;;;;;;50.13;25.83;;;;;;;-4.37;100.00;100097.47;4992262;28;20267;-84
2023/02/10 02:11:23;;;;;;;52.50;27.07;;;;;;;-4.37;100.00;100094.00;4992908;28;20217;-84
2023/02/10 02:14:15;;;;;;;58.50;28.17;;;;;;;-4.37;100.00;100092.28;4992807;28;20223;-84
2023/02/10 02:16:56;;;;;;;50.13;26.63;;;;;;;-4.36;100.00;100100.88;4993040;28;20219;-84
2023/02/10 02:23:10;;;;;;;49.03;25.80;;;;;;;-4.36;100.00;100098.31;4998326;28;20300;-84
2023/02/10 02:25:57;;;;;;;47.27;24.57;;;;;;;-4.42;100.00;100116.25;4992117;28;20212;-84
2023/02/10 02:28:29;;;;;;;57.10;27.30;;;;;;;-4.34;100.00;100104.38;4992247;28;20526;-84
2023/02/10 02:31:26;;;;;;;50.30;26.17;;;;;;;-4.39;100.00;100116.31;4992050;28;20417;-83
2023/02/10 02:33:58;;;;;;;51.23;25.90;;;;;;;-4.42;100.00;100122.28;4992251;28;20219;-84
2023/02/10 02:36:30;;;;;;;51.50;26.90;;;;;;;-4.42;100.00;100116.25;4992320;28;20221;-84
2023/02/10 02:39:00;;;;;;;46.50;25.33;;;;;;;-4.45;100.00;100116.19;4992089;28;20259;-84
2023/02/10 02:41:29;;;;;;;51.90;26.60;;;;;;;-4.46;100.00;100119.63;4992127;28;20207;-84
2023/02/10 02:43:59;;;;;;;45.53;24.67;;;;;;;-4.51;100.00;100126.38;4992323;28;20213;-84
2023/02/10 02:46:35;;;;;;;42.23;24.67;;;;;;;-4.53;100.00;100120.34;4992505;28;20208;-83
2023/02/10 02:49:10;;;;;;;47.87;26.10;;;;;;;-4.52;100.00;100111.75;4991870;28;20237;-83
2023/02/10 02:51:44;;;;;;;41.57;23.63;;;;;;;-4.60;100.00;100113.28;4992956;28;20238;-83
2023/02/10 02:54:23;;;;;;;47.27;24.10;;;;;;;-4.70;100.00;100122.50;4995901;28;20207;-83
2023/02/10 02:56:55;;;;;;;47.10;25.37;;;;;;;-4.67;100.00;100121.72;4995855;28;20570;-83
2023/02/10 02:59:30;;;;;;;48.93;24.57;;;;;;;-4.64;100.00;100121.81;4995576;28;20230;-83
2023/02/10 03:01:59;;;;;;;48.87;25.10;;;;;;;-4.68;100.00;100123.44;4995806;28;20701;-83
2023/02/10 03:04:31;;;;;;;45.13;25.00;;;;;;;-4.71;100.00;100125.09;4996012;28;20208;-83
2023/02/10 03:06:58;;;;;;;47.27;25.37;;;;;;;-4.68;100.00;100117.41;4995705;28;20215;-83
2023/02/10 03:09:25;;;;;;;57.60;27.87;;;;;;;-4.70;100.00;100119.94;4995086;28;20252;-83
2023/02/10 03:11:52;;;;;;;51.30;27.23;;;;;;;-4.69;100.00;100116.56;4995504;28;20327;-83
2023/02/10 03:14:18;;;;;;;51.23;26.77;;;;;;;-4.69;100.00;100120.81;4995732;28;20306;-83
2023/02/10 03:16:45;;;;;;;51.77;26.13;;;;;;;-4.61;100.00;100124.44;4995650;28;20217;-83
2023/02/10 03:19:11;;;;;;;46.03;24.27;;;;;;;-4.65;100.00;100125.22;4995301;28;20246;-83
2023/02/10 03:21:39;;;;;;;54.33;26.20;;;;;;;-4.64;100.00;100124.38;4995505;28;20574;-83
2023/02/10 03:24:06;;;;;;;48.23;26.47;;;;;;;-4.67;100.00;100124.28;4995181;28;20213;-83
2023/02/10 03:26:32;;;;;;;48.83;26.57;;;;;;;-4.68;100.00;100120.88;4995542;28;20218;-83
2023/02/10 03:28:58;;;;;;;48.83;27.20;;;;;;;-4.67;100.00;100124.28;4994914;28;20236;-83
2023/02/10 03:31:25;;;;;;;49.00;24.07;;;;;;;-4.69;100.00;100128.56;4995457;28;20215;-83
2023/02/10 03:33:51;;;;;;;48.90;26.20;;;;;;;-4.73;100.00;100134.47;4995145;28;20215;-83
2023/02/10 03:36:18;;;;;;;53.33;27.00;;;;;;;-4.71;100.00;100132.81;4995181;28;20224;-83
2023/02/10 03:38:46;;;;;;;44.53;24.50;;;;;;;-4.78;100.00;100136.97;4994853;28;20249;-83
2023/02/10 03:41:13;;;;;;;51.10;26.30;;;;;;;-4.84;100.00;100141.13;4994985;28;20215;-83
2023/02/10 03:43:41;;;;;;;50.23;26.10;;;;;;;-4.79;100.00;100139.50;4995262;28;20647;-83
2023/02/10 03:46:07;;;;;;;46.60;26.20;;;;;;;-4.74;100.00;100143.94;4995041;28;20293;-83
2023/02/10 03:48:34;;;;;;;56.93;26.87;;;;;;;-4.78;100.00;100133.50;4994880;28;20243;-83
2023/02/10 03:51:02;;;;;;;50.93;26.73;;;;;;;-4.85;100.00;100144.50;4994548;28;20222;-83
2023/02/10 03:53:30;;;;;;;44.53;24.53;;;;;;;-4.88;100.00;100139.31;4995060;28;20228;-83
2023/02/10 03:55:58;;;;;;;44.13;24.93;;;;;;;-4.92;100.00;100150.38;4995091;28;20211;-83
2023/02/10 03:58:24;;;;;;;53.87;25.93;;;;;;;-4.96;100.00;100146.00;4994758;28;20727;-83
2023/02/10 04:00:51;;;;;;;53.73;26.60;;;;;;;-4.91;100.00;100149.53;4994674;28;20235;-83
2023/02/10 04:03:18;;;;;;;49.70;26.60;;;;;;;-4.95;100.00;100152.88;4994056;28;20311;-83
2023/02/10 04:05:45;;;;;;;54.50;26.33;;;;;;;-4.96;100.00;100151.16;4994580;28;20274;-83
2023/02/10 04:08:12;;;;;;;46.33;25.17;;;;;;;-4.96;100.00;100146.84;4994629;28;20230;-83
2023/02/10 04:10:38;;;;;;;44.27;24.93;;;;;;;-4.97;100.00;100146.81;4994477;28;20207;-83
2023/02/10 04:13:06;;;;;;;45.10;24.10;;;;;;;-4.98;100.00;100145.06;4994573;28;20254;-83
2023/02/10 04:15:33;;;;;;;47.60;26.03;;;;;;;-4.98;100.00;100142.47;4994609;28;20223;-83
2023/02/10 04:17:59;;;;;;;46.80;23.83;;;;;;;-4.95;100.00;100143.44;4994493;28;20316;-82
2023/02/10 04:20:26;;;;;;;47.40;25.87;;;;;;;-5.01;100.00;100148.44;4994108;28;20678;-83
2023/02/10 04:22:53;;;;;;;43.20;23.87;;;;;;;-5.00;100.00;100146.75;4994648;28;20211;-83
2023/02/10 04:25:19;;;;;;;40.67;22.93;;;;;;;-5.04;100.00;100137.19;4994587;28;20206;-83
2023/02/10 04:27:46;;;;;;;46.00;25.23;;;;;;;-5.01;100.00;100147.59;4994151;28;20586;-83
2023/02/10 04:30:14;;;;;;;45.20;22.87;;;;;;;-5.05;100.00;100150.91;4994227;28;20224;-83
2023/02/10 04:32:40;;;;;;;47.77;24.80;;;;;;;-5.10;100.00;100152.50;4993985;28;20242;-83
2023/02/10 04:35:07;;;;;;;49.83;26.80;;;;;;;-4.96;100.00;100153.72;4994325;28;20215;-82
2023/02/10 04:37:34;;;;;;;48.90;24.73;;;;;;;-4.94;100.00;100149.47;4994158;28;20788;-82
2023/02/10 04:40:00;;;;;;;45.10;23.93;;;;;;;-5.00;100.00;100154.47;4994322;28;20582;-82
2023/02/10 04:42:30;;;;;;;44.83;24.97;;;;;;;-5.04;100.00;100157.81;5006656;28;20216;-81
2023/02/10 04:44:57;;;;;;;44.37;25.27;;;;;;;-5.07;100.00;100157.75;5007669;28;20244;-81
2023/02/10 04:47:25;;;;;;;44.67;24.97;;;;;;;-5.10;100.00;100160.22;5008116;28;20208;-81
2023/02/10 04:49:51;;;;;;;46.80;26.77;;;;;;;-5.00;100.00;100162.22;5008248;28;20230;-81
2023/02/10 04:52:18;;;;;;;48.40;25.73;;;;;;;-5.01;100.00;100168.22;5000993;28;20247;-82
2023/02/10 04:54:45;;;;;;;50.53;26.53;;;;;;;-5.00;100.00;100170.81;4995891;28;20219;-84
2023/02/10 04:57:12;;;;;;;46.13;23.90;;;;;;;-5.03;100.00;100168.16;4993713;28;20294;-83
2023/02/10 04:59:38;;;;;;;50.03;26.17;;;;;;;-5.10;100.00;100167.97;4993439;28;20231;-84
2023/02/10 05:02:05;;;;;;;44.50;24.67;;;;;;;-5.10;100.00;100167.97;4993738;28;20218;-84
2023/02/10 05:04:33;;;;;;;47.73;25.87;;;;;;;-5.11;100.00;100166.22;4993671;28;20222;-83
2023/02/10 05:06:59;;;;;;;48.33;24.90;;;;;;;-5.07;100.00;100168.06;4993961;28;20284;-84
2023/02/10 05:09:26;;;;;;;53.03;27.97;;;;;;;-5.08;100.00;100168.91;5028586;23;20244;-79
2023/02/10 05:11:53;;;;;;;50.07;26.43;;;;;;;-5.08;100.00;100179.22;5032655;28;20576;-79
2023/02/10 05:14:20;;;;;;;49.37;24.47;;;;;;;-5.10;100.00;100178.28;5032053;28;20597;-79
2023/02/10 05:16:46;;;;;;;48.50;24.53;;;;;;;-5.12;100.00;100177.38;5031734;28;20223;-79
2023/02/10 05:19:13;;;;;;;46.53;24.70;;;;;;;-5.17;100.00;100176.38;5032292;28;20230;-79
2023/02/10 05:21:41;;;;;;;46.97;24.53;;;;;;;-5.21;100.00;100179.72;5032448;28;20217;-79
2023/02/10 05:24:07;;;;;;;48.33;25.20;;;;;;;-5.27;100.00;100179.56;5032464;28;20206;-80
2023/02/10 05:26:34;;;;;;;48.57;26.10;;;;;;;-5.34;100.00;100181.13;5032309;28;20217;-80
2023/02/10 05:29:00;;;;;;;47.73;25.90;;;;;;;-5.34;100.00;100187.97;5031913;28;20719;-80
2023/02/10 05:31:27;;;;;;;45.57;24.33;;;;;;;-5.35;100.00;100189.69;5032347;28;20210;-79
2023/02/10 05:33:53;;;;;;;47.03;25.30;;;;;;;-5.39;100.00;100184.41;5032149;28;20236;-79
2023/02/10 05:36:20;;;;;;;41.53;23.13;;;;;;;-5.45;100.00;100184.28;5032163;28;20213;-79
2023/02/10 05:41:28;;;;;;;48.33;26.40;;;;;;;-5.58;100.00;100195.06;5031558;28;20646;-79
2023/02/10 05:43:54;;;;;;;47.57;22.90;;;;;;;-5.69;100.00;100205.06;5032015;28;20213;-79
2023/02/10 05:46:21;;;;;;;48.57;24.73;;;;;;;-5.67;100.00;100205.97;5031971;28;20232;-79
2023/02/10 05:48:47;;;;;;;43.27;24.10;;;;;;;-5.67;100.00;100213.69;5031575;28;20233;-79
2023/02/10 05:51:14;;;;;;;44.30;23.70;;;;;;;-5.71;100.00;100206.75;5031906;28;20214;-79
2023/02/10 05:53:40;;;;;;;46.53;24.00;;;;;;;-5.69;100.00;100205.06;5031868;28;20236;-79
2023/02/10 05:56:08;;;;;;;45.90;24.50;;;;;;;-5.69;100.00;100210.22;5032277;28;20213;-79
2023/02/10 05:58:34;;;;;;;51.70;24.50;;;;;;;-5.72;100.00;100204.13;5031384;28;20240;-79
2023/02/10 06:01:01;;;;;;;44.37;22.37;;;;;;;-5.73;100.00;100217.84;5031432;28;20215;-79
2023/02/10 06:03:27;;;;;;;48.97;24.97;;;;;;;-5.77;100.00;100213.41;5031480;28;20215;-79
2023/02/10 06:05:54;;;;;;;43.47;24.13;;;;;;;-5.75;100.00;100216.94;5031594;28;20680;-79
2023/02/10 06:08:20;;;;;;;43.30;22.57;;;;;;;-5.80;100.00;100223.69;5031301;28;20247;-79
2023/02/10 06:10:47;;;;;;;48.80;22.93;;;;;;;-5.85;100.00;100230.41;5031245;28;20215;-79
2023/02/10 06:13:15;;;;;;;43.70;24.17;;;;;;;-5.85;100.00;100232.97;5031409;28;20235;-80
2023/02/10 06:15:41;;;;;;;46.93;24.43;;;;;;;-5.83;100.00;100236.44;5031543;28;20569;-80
2023/02/10 06:18:07;;;;;;;42.77;22.13;;;;;;;-5.90;100.00;100239.69;5031388;28;20212;-79
2023/02/10 06:20:34;;;;;;;43.97;23.40;;;;;;;-5.95;100.00;100244.72;5031006;28;20233;-80
2023/02/10 06:23:01;;;;;;;46.00;23.27;;;;;;;-5.98;100.00;100244.59;5031202;28;20707;-79
2023/02/10 06:25:27;;;;;;;44.93;22.03;;;;;;;-5.99;100.00;100242.00;5031122;28;20242;-79
2023/02/10 06:27:54;;;;;;;45.77;23.17;;;;;;;-6.03;100.00;100248.78;5030912;28;20259;-79
2023/02/10 06:30:23;;;;;;;46.33;23.63;;;;;;;-6.04;100.00;100259.88;5030959;28;20233;-79
2023/02/10 06:32:49;;;;;;;42.47;24.37;;;;;;;-6.00;100.00;100260.81;5031068;28;20238;-79
2023/02/10 06:35:16;;;;;;;49.03;24.47;;;;;;;-5.98;100.00;100256.63;5031281;28;20596;-80
2023/02/10 06:37:43;;;;;;;48.93;25.53;;;;;;;-5.85;100.00;100259.59;5031033;28;20208;-79
2023/02/10 06:40:11;;;;;;;46.60;25.07;;;;;;;-5.80;100.00;100263.16;5030974;28;20227;-79
2023/02/10 06:42:38;;;;;;;48.00;25.10;;;;;;;-5.81;100.00;100270.88;5031218;28;20218;-79
2023/02/10 06:45:05;;;;;;;48.10;24.50;;;;;;;-5.80;100.00;100264.88;5030998;28;20698;-80
2023/02/10 06:47:33;;;;;;;47.27;24.03;;;;;;;-5.81;100.00;100273.44;5031078;28;20590;-79
2023/02/10 06:49:59;;;;;;;46.60;25.53;;;;;;;-5.78;100.00;100279.50;5030611;28;20746;-79
2023/02/10 06:52:26;;;;;;;53.60;25.40;;;;;;;-5.73;100.00;100277.06;5030982;28;20216;-79
2023/02/10 06:54:52;;;;;;;45.20;24.70;;;;;;;-5.72;100.00;100281.38;5031166;28;20303;-80
2023/02/10 06:57:19;;;;;;;46.00;23.23;;;;;;;-5.75;100.00;100286.47;5031128;28;20209;-80
2023/02/10 06:59:46;;;;;;;46.53;24.17;;;;;;;-5.74;100.00;100288.19;5030678;28;20257;-79
2023/02/10 07:02:13;;;;;;;46.53;25.17;;;;;;;-5.64;100.00;100290.19;5030962;28;20212;-79
2023/02/10 07:04:41;;;;;;;53.90;26.13;;;;;;;-5.57;100.00;100292.13;5030885;28;20210;-80
2023/02/10 07:07:07;;;;;;;51.90;25.10;;;;;;;-5.52;100.00;100296.56;5030872;28;20231;-80
2023/02/10 07:09:34;;;;;;;53.77;25.97;;;;;;;-5.46;100.00;100296.75;5030332;28;20236;-79
2023/02/10 07:12:00;;;;;;;50.20;26.53;;;;;;;-5.36;100.00;100292.72;5030718;28;20212;-80
2023/02/10 07:14:27;;;;;;;42.23;24.27;;;;;;;-5.28;100.00;100291.22;5030857;28;20229;-80
2023/02/10 07:16:53;;;;;;;47.00;25.40;;;;;;;-5.31;100.00;100289.41;5030774;28;20217;-80
2023/02/10 07:19:20;;;;;;;47.87;24.57;;;;;;;-5.26;100.00;100285.28;5030421;28;20251;-80
2023/02/10 07:21:48;;;;;;;46.03;23.67;;;;;;;-5.24;100.00;100285.31;5031013;28;20211;-80
2023/02/10 07:24:14;;;;;;;44.00;24.23;;;;;;;-5.16;100.00;100286.38;5031067;28;20215;-80
2023/02/10 07:26:41;;;;;;;46.43;25.20;;;;;;;-5.07;100.00;100291.81;5030815;28;20229;-80
2023/02/10 07:29:07;;;;;;;53.63;26.67;;;;;;;-4.88;100.00;100288.88;5030327;28;20509;-81
2023/02/10 07:31:35;;;;;;;52.77;24.87;;;;;;;-4.93;100.00;100290.44;5030794;28;20221;-78
2023/02/10 07:34:02;;;;;;;50.77;26.60;;;;;;;-4.79;100.00;100300.28;5030541;28;20286;-79
2023/02/10 07:36:28;;;;;;;51.47;26.97;;;;;;;-4.59;100.00;100305.97;5030857;28;20222;-81
2023/02/10 07:38:56;;;;;;;45.30;25.33;;;;;;;-4.46;100.00;100310.59;5031693;28;20237;-83
2023/02/10 07:41:23;;;;;;;48.43;26.50;;;;;;;-4.36;100.00;100307.38;5034090;28;20210;-80
2023/02/10 07:43:49;;;;;;;49.70;26.67;;;;;;;-4.32;100.00;100304.03;5034291;28;20202;-81
2023/02/10 07:46:16;;;;;;;51.23;26.87;;;;;;;-4.27;100.00;100302.44;5034130;28;20693;-81
2023/02/10 07:48:42;;;;;;;45.37;25.27;;;;;;;-4.17;100.00;100300.09;5033812;28;20235;-79
2023/02/10 07:51:08;;;;;;;55.00;26.87;;;;;;;-4.18;100.00;100297.47;5033970;28;20220;-80
2023/02/10 07:53:37;;;;;;;49.90;26.17;;;;;;;-4.15;100.00;100289.81;5033942;28;20231;-80
2023/02/10 07:56:05;;;;;;;50.43;26.77;;;;;;;-4.05;100.00;100284.00;5034007;28;20218;-79
2023/02/10 07:58:32;;;;;;;45.90;25.57;;;;;;;-4.08;100.00;100290.00;5033824;28;20237;-80
2023/02/10 08:00:58;;;;;;;51.70;27.37;;;;;;;-4.06;100.00;100292.59;5033446;28;20218;-79
2023/02/10 08:03:25;;;;;;;48.57;26.73;;;;;;;-4.04;100.00;100296.94;5034029;28;20577;-80
2023/02/10 08:05:52;;;;;;;49.23;27.70;;;;;;;-4.03;100.00;100292.66;5033709;28;20208;-80
2023/02/10 08:08:18;;;;;;;49.00;26.70;;;;;;;-3.96;100.00;100285.09;5033684;28;20232;-83
2023/02/10 08:10:45;;;;;;;50.80;27.10;;;;;;;-3.92;100.00;100291.22;5033315;28;20219;-80
2023/02/10 08:13:13;;;;;;;46.73;26.07;;;;;;;-3.88;100.00;100298.16;5033511;28;20222;-79
2023/02/10 08:15:39;;;;;;;43.63;25.67;;;;;;;-3.76;100.00;100293.25;5033547;28;20536;-79
2023/02/10 08:18:06;;;;;;;46.70;25.20;;;;;;;-3.73;100.00;100293.34;5033614;28;20220;-80
2023/02/10 08:20:32;;;;;;;46.07;27.13;;;;;;;-3.68;100.00;100297.75;5033141;28;20675;-80
2023/02/10 08:22:59;;;;;;;46.33;26.50;;;;;;;-3.59;100.00;100302.25;5033548;28;20206;-80
2023/02/10 08:25:26;;;;;;;49.07;26.03;;;;;;;-3.56;100.00;100307.50;5033281;28;20235;-79
2023/02/10 08:27:52;;;;;;;46.93;26.00;;;;;;;-3.53;100.00;100304.97;5033375;28;20258;-80
2023/02/10 08:30:20;;;;;;;51.00;26.30;;;;;;;-3.51;100.00;100300.69;5032907;28;20231;-79
2023/02/10 08:32:47;;;;;;;46.60;26.13;;;;;;;-3.42;100.00;100303.47;5033460;28;20206;-84
2023/02/10 08:35:13;;;;;;;48.40;26.00;;;;;;;-3.37;100.00;100313.06;5033165;28;20729;-81
2023/02/10 08:37:40;;;;;;;56.20;28.63;;;;;;;-3.23;100.00;100300.41;5033242;28;20218;-81
2023/02/10 08:40:07;;;;;;;51.80;27.43;;;;;;;-3.04;100.00;100311.13;5032792;28;20602;-82
2023/02/10 08:42:34;;;;;;;49.67;27.17;;;;;;;-2.95;100.00;100313.03;5033048;28;20226;-80
2023/02/10 08:45:01;;;;;;;49.43;26.20;;;;;;;-2.94;100.00;100310.44;5032928;28;20219;-81
2023/02/10 08:47:29;;;;;;;45.10;26.43;;;;;;;-2.86;100.00;100303.72;5033146;28;20219;-80
2023/02/10 08:49:55;;;;;;;45.60;25.90;;;;;;;-2.83;100.00;100310.63;5032468;28;20231;-80
2023/02/10 08:52:23;;;;;;;47.30;26.90;;;;;;;-2.79;100.00;100302.09;5032982;28;20215;-82
2023/02/10 08:54:49;;;;;;;46.57;26.80;;;;;;;-2.68;100.00;100300.56;5032821;28;20243;-81
2023/02/10 08:57:16;;;;;;;45.93;25.63;;;;;;;-2.58;100.00;100294.72;5032720;28;20670;-81
2023/02/10 08:59:42;;;;;;;43.73;26.27;;;;;;;-2.52;100.00;100297.41;5032684;28;20233;-80
2023/02/10 09:02:10;;;;;;;44.77;25.90;;;;;;;-2.41;100.00;100303.63;5032881;28;20204;-83
2023/02/10 09:04:38;;;;;;;46.33;25.43;;;;;;;-2.32;100.00;100303.78;5032741;28;20294;-80
2023/02/10 09:07:05;;;;;;;41.20;25.27;;;;;;;-2.30;100.00;100304.66;5032685;28;20211;-81
2023/02/10 09:09:31;;;;;;;42.30;23.13;;;;;;;-2.10;100.00;100303.25;5032065;28;20266;-81
2023/02/10 09:11:58;;;;;;;39.50;23.27;;;;;;;-2.05;100.00;100299.00;5032468;28;20227;-82
2023/02/10 09:14:24;;;;;;;42.67;24.60;;;;;;;-2.05;100.00;100306.78;5032433;28;20232;-81
2023/02/10 09:16:51;;;;;;;41.47;24.83;;;;;;;-1.89;100.00;100313.94;5032700;28;20207;-82
2023/02/10 09:19:19;;;;;;;42.37;24.00;;;;;;;-1.81;100.00;100309.72;5032075;28;20240;-80
2023/02/10 09:21:47;;;;;;;37.90;22.63;;;;;;;-1.76;100.00;100310.66;5032382;28;20223;-80
2023/02/10 09:24:14;;;;;;;39.87;24.93;;;;;;;-1.69;100.00;100312.50;5032260;28;20666;-81
2023/02/10 09:26:41;;;;;;;41.53;27.15;;;;;;;-1.55;100.00;100316.13;5030560;28;20473;-82
2023/02/10 09:29:07;;;;;;;40.73;25.10;;;;;;;-1.49;100.00;100311.03;5030259;28;20239;-82
2023/02/10 09:31:34;;;;;;;40.77;24.97;;;;;;;-1.35;100.00;100304.31;5030822;28;20242;-82
2023/02/10 09:34:01;;;;;;;41.37;24.33;;;;;;;-1.22;100.00;100307.06;5030398;28;20240;-82
2023/02/10 09:36:27;;;;;;;37.30;22.90;;;;;;;-1.20;100.00;100315.75;5030478;28;20205;-82
2023/02/10 09:38:57;;;;;;;40.60;23.93;;;;;;;-1.11;100.00;100304.59;5029153;28;20228;-82
2023/02/10 09:41:40;;;;;;;39.97;23.90;;;;;;;-1.05;100.00;100296.91;5031443;28;20215;-81
2023/02/10 09:44:13;;;;;;;40.10;24.67;;;;;;;-0.84;100.00;100295.41;5031357;28;20216;-81
2023/02/10 09:46:50;;;;;;;40.90;23.13;;;;;;;-0.87;100.00;100297.09;5030892;28;20213;-81
2023/02/10 09:49:43;;;;;;;40.93;23.33;;;;;;;-0.72;100.00;100300.72;5030748;28;20235;-82
2023/02/10 09:52:20;;;;;;;42.27;23.47;;;;;;;-0.58;100.00;100293.03;5031265;28;20207;-81
2023/02/10 09:54:48;;;;;;;40.97;23.33;;;;;;;-0.39;100.00;100294.94;5030724;28;20221;-82
2023/02/10 09:57:19;;;;;;;37.40;22.70;;;;;;;-0.35;100.00;100291.50;5030973;28;20213;-81
2023/02/10 09:59:50;;;;;;;38.43;23.07;;;;;;;-0.41;100.00;100291.44;5030269;28;20232;-81
2023/02/10 10:02:22;;;;;;;40.80;23.73;;;;;;;-0.31;100.00;100290.69;5030660;28;20216;-81
2023/02/10 10:04:50;;;;;;;34.37;21.73;;;;;;;-0.29;100.00;100282.03;5030701;28;20212;-81
2023/02/10 10:07:24;;;;;;;40.83;22.60;;;;;;;-0.13;100.00;100290.81;5030762;28;20209;-81
2023/02/10 10:10:00;;;;;;;42.07;23.67;;;;;;;-0.07;100.00;100290.00;5030197;28;20718;-81
2023/02/10 10:12:27;;;;;;;37.90;22.40;;;;;;;0.31;100.00;100279.84;5030591;28;20213;-81
2023/02/10 10:14:54;;;;;;;41.43;24.33;;;;;;;0.47;100.00;100285.13;5030811;28;20233;-80
2023/02/10 10:17:39;;;;;;;36.10;22.80;;;;;;;0.38;100.00;100279.88;5031579;28;20586;-80
2023/02/10 10:20:25;;;;;;;32.90;20.60;;;;;;;0.49;99.06;100280.78;5031071;28;20239;-82
2023/02/10 10:23:03;;;;;;;36.87;22.43;;;;;;;0.70;98.40;100282.63;5031279;28;20209;-81
2023/02/10 10:25:58;;;;;;;36.40;20.83;;;;;;;0.72;95.95;100279.16;5031193;28;20698;-82
2023/02/10 10:28:41;;;;;;;35.47;21.17;;;;;;;0.83;95.93;100279.19;5029407;28;20238;-80
2023/02/10 10:31:13;;;;;;;33.93;20.70;;;;;;;0.86;94.89;100274.03;5030878;28;20215;-77
2023/02/10 10:33:46;;;;;;;31.47;20.57;;;;;;;1.03;91.97;100267.09;5031320;28;20212;-80
2023/02/10 10:36:15;;;;;;;33.47;21.10;;;;;;;1.00;91.54;100283.56;5031346;28;20217;-80
2023/02/10 10:38:46;;;;;;;33.70;21.07;;;;;;;1.02;91.23;100286.19;5031073;28;20239;-80
2023/02/10 10:41:16;;;;;;;39.77;22.07;;;;;;;1.05;90.85;100281.84;5031106;28;20211;-80
2023/02/10 10:43:46;;;;;;;33.77;21.37;;;;;;;1.10;89.11;100279.28;5031040;28;20757;-80
2023/02/10 10:46:19;;;;;;;34.53;21.17;;;;;;;1.17;88.02;100271.47;5031299;28;20212;-80
2023/02/10 10:48:46;;;;;;;31.60;19.90;;;;;;;1.14;87.93;100261.06;5030777;28;20235;-79
2023/02/10 10:51:13;;;;;;;33.20;20.00;;;;;;;1.18;87.51;100257.56;5031017;28;20236;-79
2023/02/10 10:53:43;;;;;;;31.97;20.37;;;;;;;1.35;87.17;100263.69;5030981;28;20208;-79
2023/02/10 10:56:22;;;;;;;34.60;22.40;;;;;;;1.44;86.20;100255.91;5029765;28;20527;-81
2023/02/10 10:58:50;;;;;;;32.20;20.77;;;;;;;1.53;85.58;100249.81;5030392;28;20710;-77
2023/02/10 11:01:18;;;;;;;30.92;21.90;;;;;;;1.80;84.47;100250.69;5030317;28;20448;-82
2023/02/10 11:03:45;;;;;;;33.27;21.00;;;;;;;1.76;84.32;100246.31;5030829;28;20209;-79
2023/02/10 11:06:14;;;;;;;32.47;20.10;;;;;;;1.80;84.08;100250.69;5030806;28;20209;-79
2023/02/10 11:08:45;;;;;;;32.43;20.40;;;;;;;1.93;83.96;100247.19;5043417;23;20267;-85
2023/02/10 11:11:15;;;;;;;32.40;19.27;;;;;;;2.04;83.44;100242.81;5011100;28;20300;-86
2023/02/10 11:13:56;;;;;;;30.30;18.67;;;;;;;2.14;82.37;100236.69;5014283;28;20217;-84